sensor_id;sensor_type;location;lat;lon;timestamp;P1;durP1;ratioP1;P2;durP2;ratioP2
64367;SDS011;50692;53.314;-6.300;2023-08-12T00:01:00;7.75;;;2.40;;
64367;SDS011;50692;53.314;-6.300;2023-08-12T00:03:45;7.50;;;2.50;;
64367;SDS011;50692;53.314;-6.300;2023-08-12T00:06:32;12.63;;;3.45;;
64367;SDS011;50692;53.314;-6.300;2023-08-12T00:09:17;4.93;;;2.03;;
64367;SDS011;50692;53.314;-6.300;2023-08-12T00:12:03;8.73;;;2.30;;
64367;SDS011;50692;53.314;-6.300;2023-08-12T00:14:49;8.18;;;2.50;;
64367;SDS011;50692;53.314;-6.300;2023-08-12T00:17:35;7.45;;;3.10;;
64367;SDS011;50692;53.314;-6.300;2023-08-12T00:20:22;9.15;;;3.05;;
64367;SDS011;50692;53.314;-6.300;2023-08-12T00:23:08;8.93;;;2.63;;
64367;SDS011;50692;53.314;-6.300;2023-08-12T00:25:57;5.95;;;2.05;;
64367;SDS011;50692;53.314;-6.300;2023-08-12T00:28:44;6.65;;;2.20;;
64367;SDS011;50692;53.314;-6.300;2023-08-12T00:31:29;10.38;;;2.95;;
64367;SDS011;50692;53.314;-6.300;2023-08-12T00:34:16;6.80;;;2.53;;
64367;SDS011;50692;53.314;-6.300;2023-08-12T00:37:04;4.28;;;1.85;;
64367;SDS011;50692;53.314;-6.300;2023-08-12T00:39:50;8.32;;;2.22;;
64367;SDS011;50692;53.314;-6.300;2023-08-12T00:42:35;7.45;;;2.60;;
64367;SDS011;50692;53.314;-6.300;2023-08-12T00:45:21;5.57;;;2.17;;
64367;SDS011;50692;53.314;-6.300;2023-08-12T00:48:08;11.32;;;3.20;;
64367;SDS011;50692;53.314;-6.300;2023-08-12T00:53:42;7.88;;;2.33;;
64367;SDS011;50692;53.314;-6.300;2023-08-12T00:56:31;6.15;;;2.47;;
64367;SDS011;50692;53.314;-6.300;2023-08-12T00:59:19;8.73;;;2.00;;
64367;SDS011;50692;53.314;-6.300;2023-08-12T01:02:06;5.57;;;2.10;;
64367;SDS011;50692;53.314;-6.300;2023-08-12T01:04:52;6.53;;;2.40;;
64367;SDS011;50692;53.314;-6.300;2023-08-12T01:07:38;8.63;;;2.30;;
64367;SDS011;50692;53.314;-6.300;2023-08-12T01:10:24;4.00;;;2.15;;
64367;SDS011;50692;53.314;-6.300;2023-08-12T01:13:32;9.48;;;2.22;;
64367;SDS011;50692;53.314;-6.300;2023-08-12T01:16:32;7.60;;;2.25;;
64367;SDS011;50692;53.314;-6.300;2023-08-12T01:19:37;8.27;;;2.60;;
64367;SDS011;50692;53.314;-6.300;2023-08-12T01:22:24;8.52;;;2.55;;
64367;SDS011;50692;53.314;-6.300;2023-08-12T01:25:13;8.93;;;2.08;;
64367;SDS011;50692;53.314;-6.300;2023-08-12T01:27:59;4.78;;;2.00;;
64367;SDS011;50692;53.314;-6.300;2023-08-12T01:30:55;10.75;;;2.60;;
64367;SDS011;50692;53.314;-6.300;2023-08-12T01:36:47;6.22;;;2.03;;
64367;SDS011;50692;53.314;-6.300;2023-08-12T01:39:40;8.73;;;2.42;;
64367;SDS011;50692;53.314;-6.300;2023-08-12T01:42:29;5.82;;;2.08;;
64367;SDS011;50692;53.314;-6.300;2023-08-12T01:45:15;6.00;;;2.20;;
64367;SDS011;50692;53.314;-6.300;2023-08-12T01:48:03;5.63;;;2.13;;
64367;SDS011;50692;53.314;-6.300;2023-08-12T01:50:49;4.72;;;1.58;;
64367;SDS011;50692;53.314;-6.300;2023-08-12T01:53:35;7.47;;;2.13;;
64367;SDS011;50692;53.314;-6.300;2023-08-12T01:56:21;3.05;;;1.42;;
64367;SDS011;50692;53.314;-6.300;2023-08-12T01:59:07;5.65;;;1.42;;
64367;SDS011;50692;53.314;-6.300;2023-08-12T02:01:54;6.88;;;2.08;;
64367;SDS011;50692;53.314;-6.300;2023-08-12T02:04:40;4.65;;;1.80;;
64367;SDS011;50692;53.314;-6.300;2023-08-12T02:07:28;6.25;;;1.67;;
64367;SDS011;50692;53.314;-6.300;2023-08-12T02:10:14;3.70;;;1.48;;
64367;SDS011;50692;53.314;-6.300;2023-08-12T02:13:00;3.67;;;1.13;;
64367;SDS011;50692;53.314;-6.300;2023-08-12T02:15:45;3.90;;;1.50;;
64367;SDS011;50692;53.314;-6.300;2023-08-12T02:18:31;3.00;;;1.02;;
64367;SDS011;50692;53.314;-6.300;2023-08-12T02:21:17;2.90;;;1.38;;
64367;SDS011;50692;53.314;-6.300;2023-08-12T02:24:03;4.82;;;1.30;;
64367;SDS011;50692;53.314;-6.300;2023-08-12T02:26:49;4.05;;;1.08;;
64367;SDS011;50692;53.314;-6.300;2023-08-12T02:29:35;4.97;;;1.35;;
64367;SDS011;50692;53.314;-6.300;2023-08-12T02:32:21;4.20;;;1.42;;
64367;SDS011;50692;53.314;-6.300;2023-08-12T02:35:08;5.22;;;1.50;;
64367;SDS011;50692;53.314;-6.300;2023-08-12T02:37:54;5.00;;;1.20;;
64367;SDS011;50692;53.314;-6.300;2023-08-12T02:40:40;2.95;;;1.40;;
64367;SDS011;50692;53.314;-6.300;2023-08-12T02:43:26;4.90;;;1.40;;
64367;SDS011;50692;53.314;-6.300;2023-08-12T02:46:11;4.13;;;1.67;;
64367;SDS011;50692;53.314;-6.300;2023-08-12T02:49:00;5.17;;;1.87;;
64367;SDS011;50692;53.314;-6.300;2023-08-12T02:51:46;3.85;;;1.52;;
64367;SDS011;50692;53.314;-6.300;2023-08-12T02:54:32;3.65;;;1.10;;
64367;SDS011;50692;53.314;-6.300;2023-08-12T02:57:18;5.07;;;1.30;;
64367;SDS011;50692;53.314;-6.300;2023-08-12T03:00:04;3.33;;;1.13;;
64367;SDS011;50692;53.314;-6.300;2023-08-12T03:02:50;4.00;;;1.20;;
64367;SDS011;50692;53.314;-6.300;2023-08-12T03:05:36;4.97;;;1.23;;
64367;SDS011;50692;53.314;-6.300;2023-08-12T03:08:22;4.47;;;1.20;;
64367;SDS011;50692;53.314;-6.300;2023-08-12T03:11:08;2.70;;;1.17;;
64367;SDS011;50692;53.314;-6.300;2023-08-12T03:13:54;3.35;;;1.45;;
64367;SDS011;50692;53.314;-6.300;2023-08-12T03:16:40;3.03;;;1.30;;
64367;SDS011;50692;53.314;-6.300;2023-08-12T03:19:25;5.68;;;1.42;;
64367;SDS011;50692;53.314;-6.300;2023-08-12T03:22:11;3.90;;;1.23;;
64367;SDS011;50692;53.314;-6.300;2023-08-12T03:24:57;4.07;;;1.48;;
64367;SDS011;50692;53.314;-6.300;2023-08-12T03:27:43;5.30;;;1.85;;
64367;SDS011;50692;53.314;-6.300;2023-08-12T03:30:29;5.00;;;1.20;;
64367;SDS011;50692;53.314;-6.300;2023-08-12T03:33:15;1.90;;;1.13;;
64367;SDS011;50692;53.314;-6.300;2023-08-12T03:36:01;4.13;;;1.50;;
64367;SDS011;50692;53.314;-6.300;2023-08-12T03:38:47;6.65;;;1.70;;
64367;SDS011;50692;53.314;-6.300;2023-08-12T03:41:33;4.30;;;1.25;;
64367;SDS011;50692;53.314;-6.300;2023-08-12T03:44:19;5.43;;;1.50;;
64367;SDS011;50692;53.314;-6.300;2023-08-12T03:47:05;4.15;;;1.30;;
64367;SDS011;50692;53.314;-6.300;2023-08-12T03:49:51;4.63;;;1.08;;
64367;SDS011;50692;53.314;-6.300;2023-08-12T03:52:37;3.70;;;1.30;;
64367;SDS011;50692;53.314;-6.300;2023-08-12T03:55:23;9.02;;;1.98;;
64367;SDS011;50692;53.314;-6.300;2023-08-12T03:58:09;4.68;;;1.60;;
64367;SDS011;50692;53.314;-6.300;2023-08-12T04:00:54;4.35;;;1.65;;
64367;SDS011;50692;53.314;-6.300;2023-08-12T04:03:40;5.43;;;1.45;;
64367;SDS011;50692;53.314;-6.300;2023-08-12T04:06:26;3.63;;;1.38;;
64367;SDS011;50692;53.314;-6.300;2023-08-12T04:09:12;3.28;;;1.30;;
64367;SDS011;50692;53.314;-6.300;2023-08-12T04:11:59;5.35;;;1.42;;
64367;SDS011;50692;53.314;-6.300;2023-08-12T04:14:46;7.20;;;1.98;;
64367;SDS011;50692;53.314;-6.300;2023-08-12T04:17:33;4.72;;;1.40;;
64367;SDS011;50692;53.314;-6.300;2023-08-12T04:20:19;3.45;;;1.40;;
64367;SDS011;50692;53.314;-6.300;2023-08-12T04:23:05;4.75;;;2.13;;
64367;SDS011;50692;53.314;-6.300;2023-08-12T04:25:52;5.70;;;1.67;;
64367;SDS011;50692;53.314;-6.300;2023-08-12T04:28:39;3.45;;;1.17;;
64367;SDS011;50692;53.314;-6.300;2023-08-12T04:31:25;5.22;;;1.30;;
64367;SDS011;50692;53.314;-6.300;2023-08-12T04:34:11;3.03;;;1.40;;
64367;SDS011;50692;53.314;-6.300;2023-08-12T04:36:57;3.30;;;1.02;;
64367;SDS011;50692;53.314;-6.300;2023-08-12T04:39:43;5.07;;;1.15;;
64367;SDS011;50692;53.314;-6.300;2023-08-12T04:42:31;4.18;;;1.38;;
64367;SDS011;50692;53.314;-6.300;2023-08-12T04:45:17;2.55;;;0.90;;
64367;SDS011;50692;53.314;-6.300;2023-08-12T04:48:02;1.83;;;0.85;;
64367;SDS011;50692;53.314;-6.300;2023-08-12T04:50:49;3.05;;;1.17;;
64367;SDS011;50692;53.314;-6.300;2023-08-12T04:53:35;4.20;;;1.75;;
64367;SDS011;50692;53.314;-6.300;2023-08-12T04:56:20;3.58;;;1.35;;
64367;SDS011;50692;53.314;-6.300;2023-08-12T04:59:06;2.28;;;1.15;;
64367;SDS011;50692;53.314;-6.300;2023-08-12T05:01:53;2.92;;;1.15;;
64367;SDS011;50692;53.314;-6.300;2023-08-12T05:04:39;4.13;;;1.33;;
64367;SDS011;50692;53.314;-6.300;2023-08-12T05:07:25;2.95;;;1.00;;
64367;SDS011;50692;53.314;-6.300;2023-08-12T05:10:12;5.45;;;1.63;;
64367;SDS011;50692;53.314;-6.300;2023-08-12T05:12:58;3.67;;;1.30;;
64367;SDS011;50692;53.314;-6.300;2023-08-12T05:15:47;2.42;;;0.85;;
64367;SDS011;50692;53.314;-6.300;2023-08-12T05:18:33;3.33;;;1.05;;
64367;SDS011;50692;53.314;-6.300;2023-08-12T05:21:19;2.45;;;0.90;;
64367;SDS011;50692;53.314;-6.300;2023-08-12T05:24:05;5.60;;;1.20;;
64367;SDS011;50692;53.314;-6.300;2023-08-12T05:26:51;3.58;;;0.80;;
64367;SDS011;50692;53.314;-6.300;2023-08-12T05:29:37;3.95;;;1.27;;
64367;SDS011;50692;53.314;-6.300;2023-08-12T05:32:23;2.45;;;0.82;;
64367;SDS011;50692;53.314;-6.300;2023-08-12T05:35:09;3.42;;;1.05;;
64367;SDS011;50692;53.314;-6.300;2023-08-12T05:37:55;3.60;;;1.13;;
64367;SDS011;50692;53.314;-6.300;2023-08-12T05:40:41;5.60;;;1.60;;
64367;SDS011;50692;53.314;-6.300;2023-08-12T05:43:27;3.80;;;1.30;;
64367;SDS011;50692;53.314;-6.300;2023-08-12T05:46:12;2.08;;;0.90;;
64367;SDS011;50692;53.314;-6.300;2023-08-12T05:48:58;3.47;;;1.20;;
64367;SDS011;50692;53.314;-6.300;2023-08-12T05:51:44;3.50;;;1.00;;
64367;SDS011;50692;53.314;-6.300;2023-08-12T05:54:30;2.78;;;1.00;;
64367;SDS011;50692;53.314;-6.300;2023-08-12T05:57:16;2.58;;;1.08;;
64367;SDS011;50692;53.314;-6.300;2023-08-12T06:00:03;3.05;;;1.10;;
64367;SDS011;50692;53.314;-6.300;2023-08-12T06:02:49;2.13;;;0.90;;
64367;SDS011;50692;53.314;-6.300;2023-08-12T06:05:35;4.78;;;1.38;;
64367;SDS011;50692;53.314;-6.300;2023-08-12T06:08:21;2.92;;;1.00;;
64367;SDS011;50692;53.314;-6.300;2023-08-12T06:11:07;2.85;;;1.08;;
64367;SDS011;50692;53.314;-6.300;2023-08-12T06:13:53;3.42;;;0.85;;
64367;SDS011;50692;53.314;-6.300;2023-08-12T06:16:39;2.65;;;0.90;;
64367;SDS011;50692;53.314;-6.300;2023-08-12T06:19:25;3.83;;;1.00;;
64367;SDS011;50692;53.314;-6.300;2023-08-12T06:22:11;2.85;;;1.42;;
64367;SDS011;50692;53.314;-6.300;2023-08-12T06:24:57;4.38;;;1.10;;
64367;SDS011;50692;53.314;-6.300;2023-08-12T06:27:43;4.57;;;1.17;;
64367;SDS011;50692;53.314;-6.300;2023-08-12T06:30:29;2.20;;;1.20;;
64367;SDS011;50692;53.314;-6.300;2023-08-12T06:33:15;3.55;;;1.27;;
64367;SDS011;50692;53.314;-6.300;2023-08-12T06:36:01;3.13;;;1.15;;
64367;SDS011;50692;53.314;-6.300;2023-08-12T06:38:47;2.88;;;1.00;;
64367;SDS011;50692;53.314;-6.300;2023-08-12T06:41:33;2.75;;;1.30;;
64367;SDS011;50692;53.314;-6.300;2023-08-12T06:44:19;3.75;;;0.80;;
64367;SDS011;50692;53.314;-6.300;2023-08-12T06:47:05;3.38;;;1.00;;
64367;SDS011;50692;53.314;-6.300;2023-08-12T06:49:51;3.45;;;1.45;;
64367;SDS011;50692;53.314;-6.300;2023-08-12T06:52:36;3.20;;;0.95;;
64367;SDS011;50692;53.314;-6.300;2023-08-12T06:55:22;2.10;;;1.10;;
64367;SDS011;50692;53.314;-6.300;2023-08-12T06:58:08;2.97;;;1.17;;
64367;SDS011;50692;53.314;-6.300;2023-08-12T07:00:54;3.92;;;1.17;;
64367;SDS011;50692;53.314;-6.300;2023-08-12T07:03:40;3.90;;;1.02;;
64367;SDS011;50692;53.314;-6.300;2023-08-12T07:06:26;3.67;;;1.30;;
64367;SDS011;50692;53.314;-6.300;2023-08-12T07:09:12;5.43;;;1.20;;
64367;SDS011;50692;53.314;-6.300;2023-08-12T07:11:58;3.50;;;1.15;;
64367;SDS011;50692;53.314;-6.300;2023-08-12T07:14:44;2.72;;;0.98;;
64367;SDS011;50692;53.314;-6.300;2023-08-12T07:17:30;3.00;;;1.10;;
64367;SDS011;50692;53.314;-6.300;2023-08-12T07:20:16;2.45;;;0.93;;
64367;SDS011;50692;53.314;-6.300;2023-08-12T07:23:02;2.65;;;1.10;;
64367;SDS011;50692;53.314;-6.300;2023-08-12T07:25:50;3.70;;;0.70;;
64367;SDS011;50692;53.314;-6.300;2023-08-12T07:28:36;2.38;;;1.02;;
64367;SDS011;50692;53.314;-6.300;2023-08-12T07:31:21;2.83;;;1.15;;
64367;SDS011;50692;53.314;-6.300;2023-08-12T07:34:07;3.90;;;1.00;;
64367;SDS011;50692;53.314;-6.300;2023-08-12T07:36:53;1.60;;;0.70;;
64367;SDS011;50692;53.314;-6.300;2023-08-12T07:39:39;1.40;;;0.75;;
64367;SDS011;50692;53.314;-6.300;2023-08-12T07:42:25;1.85;;;0.60;;
64367;SDS011;50692;53.314;-6.300;2023-08-12T07:45:11;2.72;;;0.90;;
64367;SDS011;50692;53.314;-6.300;2023-08-12T07:47:58;0.93;;;0.60;;
64367;SDS011;50692;53.314;-6.300;2023-08-12T07:50:44;1.02;;;0.52;;
64367;SDS011;50692;53.314;-6.300;2023-08-12T07:53:30;3.10;;;0.95;;
64367;SDS011;50692;53.314;-6.300;2023-08-12T07:56:18;0.80;;;0.47;;
64367;SDS011;50692;53.314;-6.300;2023-08-12T07:59:03;2.40;;;0.80;;
64367;SDS011;50692;53.314;-6.300;2023-08-12T08:01:50;1.10;;;0.55;;
64367;SDS011;50692;53.314;-6.300;2023-08-12T08:04:35;2.30;;;0.50;;
64367;SDS011;50692;53.314;-6.300;2023-08-12T08:07:21;1.38;;;0.68;;
64367;SDS011;50692;53.314;-6.300;2023-08-12T08:10:10;1.98;;;0.80;;
64367;SDS011;50692;53.314;-6.300;2023-08-12T08:12:55;1.60;;;0.57;;
64367;SDS011;50692;53.314;-6.300;2023-08-12T08:15:41;1.10;;;0.50;;
64367;SDS011;50692;53.314;-6.300;2023-08-12T08:18:27;0.77;;;0.52;;
64367;SDS011;50692;53.314;-6.300;2023-08-12T08:21:13;2.15;;;0.77;;
64367;SDS011;50692;53.314;-6.300;2023-08-12T08:23:59;1.15;;;0.50;;
64367;SDS011;50692;53.314;-6.300;2023-08-12T08:26:45;1.30;;;0.57;;
64367;SDS011;50692;53.314;-6.300;2023-08-12T08:29:32;1.40;;;0.52;;
64367;SDS011;50692;53.314;-6.300;2023-08-12T08:32:18;0.80;;;0.68;;
64367;SDS011;50692;53.314;-6.300;2023-08-12T08:35:04;1.55;;;0.82;;
64367;SDS011;50692;53.314;-6.300;2023-08-12T08:37:50;1.85;;;0.90;;
64367;SDS011;50692;53.314;-6.300;2023-08-12T08:40:36;0.68;;;0.60;;
64367;SDS011;50692;53.314;-6.300;2023-08-12T08:43:22;2.35;;;0.60;;
64367;SDS011;50692;53.314;-6.300;2023-08-12T08:46:09;2.92;;;0.70;;
64367;SDS011;50692;53.314;-6.300;2023-08-12T08:48:59;2.13;;;0.70;;
64367;SDS011;50692;53.314;-6.300;2023-08-12T08:51:46;2.85;;;0.90;;
64367;SDS011;50692;53.314;-6.300;2023-08-12T08:54:33;0.73;;;0.50;;
64367;SDS011;50692;53.314;-6.300;2023-08-12T08:57:19;2.45;;;0.68;;
64367;SDS011;50692;53.314;-6.300;2023-08-12T09:00:09;1.10;;;0.40;;
64367;SDS011;50692;53.314;-6.300;2023-08-12T09:02:56;0.40;;;0.40;;
64367;SDS011;50692;53.314;-6.300;2023-08-12T09:05:43;0.52;;;0.40;;
64367;SDS011;50692;53.314;-6.300;2023-08-12T09:08:33;2.20;;;0.85;;
64367;SDS011;50692;53.314;-6.300;2023-08-12T09:11:19;0.63;;;0.32;;
64367;SDS011;50692;53.314;-6.300;2023-08-12T09:14:07;2.22;;;0.70;;
64367;SDS011;50692;53.314;-6.300;2023-08-12T09:16:54;1.75;;;0.60;;
64367;SDS011;50692;53.314;-6.300;2023-08-12T09:19:42;1.65;;;0.40;;
64367;SDS011;50692;53.314;-6.300;2023-08-12T09:22:28;0.32;;;0.32;;
64367;SDS011;50692;53.314;-6.300;2023-08-12T09:25:14;1.08;;;0.50;;
64367;SDS011;50692;53.314;-6.300;2023-08-12T09:28:00;2.05;;;0.40;;
64367;SDS011;50692;53.314;-6.300;2023-08-12T09:30:50;0.45;;;0.38;;
64367;SDS011;50692;53.314;-6.300;2023-08-12T09:33:39;1.38;;;0.45;;
64367;SDS011;50692;53.314;-6.300;2023-08-12T09:36:28;3.10;;;0.47;;
64367;SDS011;50692;53.314;-6.300;2023-08-12T09:39:15;0.63;;;0.52;;
64367;SDS011;50692;53.314;-6.300;2023-08-12T09:42:01;0.75;;;0.45;;
64367;SDS011;50692;53.314;-6.300;2023-08-12T09:44:48;1.48;;;0.60;;
64367;SDS011;50692;53.314;-6.300;2023-08-12T09:47:35;1.42;;;0.88;;
64367;SDS011;50692;53.314;-6.300;2023-08-12T09:50:21;2.58;;;0.88;;
64367;SDS011;50692;53.314;-6.300;2023-08-12T09:53:08;1.58;;;0.50;;
64367;SDS011;50692;53.314;-6.300;2023-08-12T09:55:54;2.50;;;0.68;;
64367;SDS011;50692;53.314;-6.300;2023-08-12T09:58:49;2.10;;;0.60;;
64367;SDS011;50692;53.314;-6.300;2023-08-12T10:01:38;1.13;;;0.47;;
64367;SDS011;50692;53.314;-6.300;2023-08-12T10:04:28;1.15;;;0.95;;
64367;SDS011;50692;53.314;-6.300;2023-08-12T10:07:20;1.02;;;0.68;;
64367;SDS011;50692;53.314;-6.300;2023-08-12T10:10:08;1.73;;;1.05;;
64367;SDS011;50692;53.314;-6.300;2023-08-12T10:12:55;1.35;;;0.70;;
64367;SDS011;50692;53.314;-6.300;2023-08-12T10:15:41;1.88;;;0.60;;
64367;SDS011;50692;53.314;-6.300;2023-08-12T10:18:28;0.50;;;0.50;;
64367;SDS011;50692;53.314;-6.300;2023-08-12T10:21:15;1.10;;;0.60;;
64367;SDS011;50692;53.314;-6.300;2023-08-12T10:24:05;1.17;;;0.63;;
64367;SDS011;50692;53.314;-6.300;2023-08-12T10:26:51;1.88;;;0.75;;
64367;SDS011;50692;53.314;-6.300;2023-08-12T10:29:38;3.20;;;0.93;;
64367;SDS011;50692;53.314;-6.300;2023-08-12T10:32:24;2.90;;;0.75;;
64367;SDS011;50692;53.314;-6.300;2023-08-12T10:35:12;2.50;;;1.33;;
64367;SDS011;50692;53.314;-6.300;2023-08-12T10:37:58;1.50;;;0.68;;
64367;SDS011;50692;53.314;-6.300;2023-08-12T10:40:44;0.90;;;0.52;;
64367;SDS011;50692;53.314;-6.300;2023-08-12T10:43:40;2.15;;;1.08;;
64367;SDS011;50692;53.314;-6.300;2023-08-12T10:46:38;4.20;;;0.95;;
64367;SDS011;50692;53.314;-6.300;2023-08-12T10:49:48;4.82;;;1.35;;
64367;SDS011;50692;53.314;-6.300;2023-08-12T10:55:27;3.92;;;1.30;;
64367;SDS011;50692;53.314;-6.300;2023-08-12T10:58:13;3.70;;;0.80;;
64367;SDS011;50692;53.314;-6.300;2023-08-12T11:01:17;2.38;;;0.88;;
64367;SDS011;50692;53.314;-6.300;2023-08-12T11:04:16;0.88;;;0.70;;
64367;SDS011;50692;53.314;-6.300;2023-08-12T11:07:13;1.70;;;0.60;;
64367;SDS011;50692;53.314;-6.300;2023-08-12T11:10:04;1.52;;;0.80;;
64367;SDS011;50692;53.314;-6.300;2023-08-12T11:13:02;2.45;;;0.70;;
64367;SDS011;50692;53.314;-6.300;2023-08-12T11:15:50;3.00;;;0.80;;
64367;SDS011;50692;53.314;-6.300;2023-08-12T11:18:36;2.08;;;0.80;;
64367;SDS011;50692;53.314;-6.300;2023-08-12T11:21:22;2.35;;;0.90;;
64367;SDS011;50692;53.314;-6.300;2023-08-12T11:24:10;1.80;;;0.77;;
64367;SDS011;50692;53.314;-6.300;2023-08-12T11:26:56;2.22;;;0.70;;
64367;SDS011;50692;53.314;-6.300;2023-08-12T11:29:42;4.15;;;0.65;;
64367;SDS011;50692;53.314;-6.300;2023-08-12T11:32:28;2.55;;;0.90;;
64367;SDS011;50692;53.314;-6.300;2023-08-12T11:35:15;3.40;;;0.98;;
64367;SDS011;50692;53.314;-6.300;2023-08-12T11:38:02;1.95;;;1.00;;
64367;SDS011;50692;53.314;-6.300;2023-08-12T11:40:50;20.33;;;2.65;;
64367;SDS011;50692;53.314;-6.300;2023-08-12T11:43:36;2.08;;;1.00;;
64367;SDS011;50692;53.314;-6.300;2023-08-12T11:46:21;2.40;;;0.60;;
64367;SDS011;50692;53.314;-6.300;2023-08-12T11:49:07;1.95;;;0.57;;
64367;SDS011;50692;53.314;-6.300;2023-08-12T11:51:54;2.78;;;1.13;;
64367;SDS011;50692;53.314;-6.300;2023-08-12T11:54:40;1.95;;;0.82;;
64367;SDS011;50692;53.314;-6.300;2023-08-12T11:57:26;1.48;;;0.60;;
64367;SDS011;50692;53.314;-6.300;2023-08-12T12:03:04;1.97;;;0.60;;
64367;SDS011;50692;53.314;-6.300;2023-08-12T12:05:55;2.72;;;0.80;;
64367;SDS011;50692;53.314;-6.300;2023-08-12T12:08:43;1.90;;;0.55;;
64367;SDS011;50692;53.314;-6.300;2023-08-12T12:11:30;1.52;;;0.95;;
64367;SDS011;50692;53.314;-6.300;2023-08-12T12:14:15;1.30;;;0.70;;
64367;SDS011;50692;53.314;-6.300;2023-08-12T12:17:06;2.22;;;0.70;;
64367;SDS011;50692;53.314;-6.300;2023-08-12T12:19:57;2.42;;;0.68;;
64367;SDS011;50692;53.314;-6.300;2023-08-12T12:22:45;0.70;;;0.60;;
64367;SDS011;50692;53.314;-6.300;2023-08-12T12:25:33;2.15;;;0.60;;
64367;SDS011;50692;53.314;-6.300;2023-08-12T12:28:18;1.80;;;0.73;;
64367;SDS011;50692;53.314;-6.300;2023-08-12T12:31:04;1.10;;;0.60;;
64367;SDS011;50692;53.314;-6.300;2023-08-12T12:33:50;1.15;;;0.73;;
64367;SDS011;50692;53.314;-6.300;2023-08-12T12:36:41;2.00;;;0.68;;
64367;SDS011;50692;53.314;-6.300;2023-08-12T12:39:26;2.10;;;1.10;;
64367;SDS011;50692;53.314;-6.300;2023-08-12T12:42:12;2.67;;;1.00;;
64367;SDS011;50692;53.314;-6.300;2023-08-12T12:44:58;2.22;;;0.73;;
64367;SDS011;50692;53.314;-6.300;2023-08-12T12:47:44;1.92;;;0.65;;
64367;SDS011;50692;53.314;-6.300;2023-08-12T12:50:30;1.73;;;0.82;;
64367;SDS011;50692;53.314;-6.300;2023-08-12T12:53:16;1.30;;;0.80;;
64367;SDS011;50692;53.314;-6.300;2023-08-12T12:56:02;1.98;;;0.80;;
64367;SDS011;50692;53.314;-6.300;2023-08-12T12:58:50;3.60;;;1.33;;
64367;SDS011;50692;53.314;-6.300;2023-08-12T13:01:36;2.05;;;0.70;;
64367;SDS011;50692;53.314;-6.300;2023-08-12T13:04:21;1.60;;;0.50;;
64367;SDS011;50692;53.314;-6.300;2023-08-12T13:07:07;0.88;;;0.57;;
64367;SDS011;50692;53.314;-6.300;2023-08-12T13:09:53;1.30;;;0.60;;
64367;SDS011;50692;53.314;-6.300;2023-08-12T13:12:39;2.53;;;0.70;;
64367;SDS011;50692;53.314;-6.300;2023-08-12T13:15:25;0.85;;;0.60;;
64367;SDS011;50692;53.314;-6.300;2023-08-12T13:18:12;0.88;;;0.43;;
64367;SDS011;50692;53.314;-6.300;2023-08-12T13:20:57;2.78;;;0.60;;
64367;SDS011;50692;53.314;-6.300;2023-08-12T13:23:43;2.20;;;0.80;;
64367;SDS011;50692;53.314;-6.300;2023-08-12T13:26:29;1.63;;;0.60;;
64367;SDS011;50692;53.314;-6.300;2023-08-12T13:29:15;1.40;;;0.60;;
64367;SDS011;50692;53.314;-6.300;2023-08-12T13:32:01;2.67;;;0.80;;
64367;SDS011;50692;53.314;-6.300;2023-08-12T13:34:47;1.20;;;0.60;;
64367;SDS011;50692;53.314;-6.300;2023-08-12T13:37:33;1.08;;;0.60;;
64367;SDS011;50692;53.314;-6.300;2023-08-12T13:40:19;1.17;;;0.50;;
64367;SDS011;50692;53.314;-6.300;2023-08-12T13:43:04;2.58;;;0.73;;
64367;SDS011;50692;53.314;-6.300;2023-08-12T13:45:51;3.45;;;0.77;;
64367;SDS011;50692;53.314;-6.300;2023-08-12T13:48:37;2.92;;;0.82;;
64367;SDS011;50692;53.314;-6.300;2023-08-12T13:51:23;0.77;;;0.47;;
64367;SDS011;50692;53.314;-6.300;2023-08-12T13:54:09;2.47;;;0.70;;
64367;SDS011;50692;53.314;-6.300;2023-08-12T13:56:54;1.83;;;0.77;;
64367;SDS011;50692;53.314;-6.300;2023-08-12T13:59:40;1.30;;;0.60;;
64367;SDS011;50692;53.314;-6.300;2023-08-12T14:02:29;4.65;;;1.02;;
64367;SDS011;50692;53.314;-6.300;2023-08-12T14:05:14;1.00;;;0.60;;
64367;SDS011;50692;53.314;-6.300;2023-08-12T14:08:00;2.85;;;0.85;;
64367;SDS011;50692;53.314;-6.300;2023-08-12T14:10:46;1.15;;;0.60;;
64367;SDS011;50692;53.314;-6.300;2023-08-12T14:13:33;2.85;;;0.80;;
64367;SDS011;50692;53.314;-6.300;2023-08-12T14:16:20;3.15;;;0.70;;
64367;SDS011;50692;53.314;-6.300;2023-08-12T14:19:07;1.95;;;0.68;;
64367;SDS011;50692;53.314;-6.300;2023-08-12T14:21:54;1.58;;;0.70;;
64367;SDS011;50692;53.314;-6.300;2023-08-12T14:24:39;2.03;;;0.55;;
64367;SDS011;50692;53.314;-6.300;2023-08-12T14:27:26;1.70;;;0.70;;
64367;SDS011;50692;53.314;-6.300;2023-08-12T14:30:12;2.17;;;0.68;;
64367;SDS011;50692;53.314;-6.300;2023-08-12T14:32:58;2.05;;;0.68;;
64367;SDS011;50692;53.314;-6.300;2023-08-12T14:35:44;2.60;;;0.80;;
64367;SDS011;50692;53.314;-6.300;2023-08-12T14:38:31;1.15;;;0.60;;
64367;SDS011;50692;53.314;-6.300;2023-08-12T14:41:18;0.70;;;0.70;;
64367;SDS011;50692;53.314;-6.300;2023-08-12T14:44:04;0.75;;;0.57;;
64367;SDS011;50692;53.314;-6.300;2023-08-12T14:46:51;7.47;;;1.42;;
64367;SDS011;50692;53.314;-6.300;2023-08-12T14:49:36;1.00;;;0.75;;
64367;SDS011;50692;53.314;-6.300;2023-08-12T14:52:22;2.08;;;0.55;;
64367;SDS011;50692;53.314;-6.300;2023-08-12T14:55:08;0.75;;;0.40;;
64367;SDS011;50692;53.314;-6.300;2023-08-12T14:57:54;1.02;;;0.50;;
64367;SDS011;50692;53.314;-6.300;2023-08-12T15:00:40;0.95;;;0.50;;
64367;SDS011;50692;53.314;-6.300;2023-08-12T15:03:26;0.88;;;0.50;;
64367;SDS011;50692;53.314;-6.300;2023-08-12T15:06:11;0.85;;;0.47;;
64367;SDS011;50692;53.314;-6.300;2023-08-12T15:08:59;1.15;;;0.50;;
64367;SDS011;50692;53.314;-6.300;2023-08-12T15:11:44;1.23;;;0.77;;
64367;SDS011;50692;53.314;-6.300;2023-08-12T15:14:30;1.63;;;0.65;;
64367;SDS011;50692;53.314;-6.300;2023-08-12T15:17:16;1.20;;;0.50;;
64367;SDS011;50692;53.314;-6.300;2023-08-12T15:20:02;1.25;;;0.50;;
64367;SDS011;50692;53.314;-6.300;2023-08-12T15:22:51;1.98;;;0.50;;
64367;SDS011;50692;53.314;-6.300;2023-08-12T15:25:36;1.73;;;0.57;;
64367;SDS011;50692;53.314;-6.300;2023-08-12T15:28:22;1.80;;;0.50;;
64367;SDS011;50692;53.314;-6.300;2023-08-12T15:31:10;1.33;;;0.60;;
64367;SDS011;50692;53.314;-6.300;2023-08-12T15:33:57;2.08;;;0.63;;
64367;SDS011;50692;53.314;-6.300;2023-08-12T15:36:43;1.63;;;0.75;;
64367;SDS011;50692;53.314;-6.300;2023-08-12T15:39:29;2.90;;;1.02;;
64367;SDS011;50692;53.314;-6.300;2023-08-12T15:42:15;1.58;;;0.80;;
64367;SDS011;50692;53.314;-6.300;2023-08-12T15:45:00;3.10;;;0.80;;
64367;SDS011;50692;53.314;-6.300;2023-08-12T15:47:48;1.75;;;0.60;;
64367;SDS011;50692;53.314;-6.300;2023-08-12T15:50:35;1.27;;;0.70;;
64367;SDS011;50692;53.314;-6.300;2023-08-12T15:53:21;2.40;;;0.82;;
64367;SDS011;50692;53.314;-6.300;2023-08-12T15:56:08;2.95;;;0.73;;
64367;SDS011;50692;53.314;-6.300;2023-08-12T15:58:56;3.67;;;0.73;;
64367;SDS011;50692;53.314;-6.300;2023-08-12T16:01:41;1.42;;;0.73;;
64367;SDS011;50692;53.314;-6.300;2023-08-12T16:04:27;1.77;;;0.68;;
64367;SDS011;50692;53.314;-6.300;2023-08-12T16:07:13;1.40;;;0.65;;
64367;SDS011;50692;53.314;-6.300;2023-08-12T16:09:59;2.90;;;0.90;;
64367;SDS011;50692;53.314;-6.300;2023-08-12T16:12:45;1.75;;;0.63;;
64367;SDS011;50692;53.314;-6.300;2023-08-12T16:15:31;3.67;;;1.25;;
64367;SDS011;50692;53.314;-6.300;2023-08-12T16:18:16;1.98;;;0.90;;
64367;SDS011;50692;53.314;-6.300;2023-08-12T16:21:03;1.98;;;0.82;;
64367;SDS011;50692;53.314;-6.300;2023-08-12T16:23:49;1.55;;;0.82;;
64367;SDS011;50692;53.314;-6.300;2023-08-12T16:26:36;1.45;;;0.60;;
64367;SDS011;50692;53.314;-6.300;2023-08-12T16:29:22;3.05;;;1.40;;
64367;SDS011;50692;53.314;-6.300;2023-08-12T16:32:08;2.35;;;1.30;;
64367;SDS011;50692;53.314;-6.300;2023-08-12T16:34:54;2.40;;;1.33;;
64367;SDS011;50692;53.314;-6.300;2023-08-12T16:37:39;3.05;;;1.58;;
64367;SDS011;50692;53.314;-6.300;2023-08-12T16:40:25;3.53;;;1.67;;